createdAt,value
2019-04-05T00:01:49.405Z,38.55
2019-04-05T00:03:53.603Z,35.15
2019-04-05T00:05:58.323Z,36.60
2019-04-05T00:08:03.027Z,38.78
2019-04-05T00:10:07.884Z,37.10
2019-04-05T00:12:11.818Z,41.53
2019-04-05T00:14:15.993Z,42.27
2019-04-05T00:16:20.135Z,41.92
2019-04-05T00:18:24.333Z,40.15
2019-04-05T00:20:28.533Z,42.05
2019-04-05T00:22:32.640Z,38.28
2019-04-05T00:24:36.756Z,42.00
2019-04-05T00:26:40.871Z,40.17
2019-04-05T00:28:45.071Z,39.53
2019-04-05T00:30:49.292Z,39.75
2019-04-05T00:32:53.497Z,41.33
2019-04-05T00:34:57.612Z,40.58
2019-04-05T00:37:02.193Z,42.83
2019-04-05T00:39:08.547Z,41.35
2019-04-05T00:41:12.379Z,38.17
2019-04-05T00:43:16.507Z,38.80
2019-04-05T00:45:28.060Z,39.05
2019-04-05T00:47:26.474Z,40.63
2019-04-05T00:49:31.104Z,39.23
2019-04-05T00:51:35.715Z,42.17
2019-04-05T00:53:41.493Z,45.65
2019-04-05T00:55:45.671Z,40.60
2019-04-05T00:57:50.875Z,37.85
2019-04-05T00:59:55.023Z,38.75
2019-04-05T01:01:59.853Z,37.73
2019-04-05T01:04:04.066Z,35.80
2019-04-05T01:06:08.270Z,40.73
2019-04-05T01:08:13.289Z,34.00
2019-04-05T01:10:17.436Z,33.02
2019-04-05T01:12:24.461Z,36.55
2019-04-05T01:14:29.320Z,38.02
2019-04-05T01:16:34.042Z,33.78
2019-04-05T01:18:38.158Z,37.90
2019-04-05T01:20:45.044Z,39.53
2019-04-05T01:22:49.443Z,36.98
2019-04-05T01:24:56.623Z,41.68
2019-04-05T01:27:01.209Z,39.15
2019-04-05T01:29:06.874Z,46.50
2019-04-05T01:31:12.638Z,43.80
2019-04-05T01:33:16.872Z,46.28
2019-04-05T01:35:21.074Z,44.63
2019-04-05T01:37:26.123Z,41.60
2019-04-05T01:39:30.329Z,44.00
2019-04-05T01:41:34.908Z,43.58
2019-04-05T01:43:39.058Z,43.75
2019-04-05T01:45:52.943Z,43.10
2019-04-05T01:47:49.027Z,44.03
2019-04-05T01:49:53.178Z,42.95
2019-04-05T01:51:58.158Z,42.05
2019-04-05T01:54:02.358Z,38.02
2019-04-05T01:56:06.691Z,43.38
2019-04-05T01:58:10.892Z,49.27
2019-04-05T02:00:21.090Z,48.58
2019-04-05T02:02:27.934Z,46.28
2019-04-05T02:04:32.130Z,48.90
2019-04-05T02:06:39.531Z,48.58
2019-04-05T02:08:45.236Z,48.23
2019-04-05T02:10:49.546Z,50.12
2019-04-05T02:12:53.522Z,47.60
2019-04-05T02:14:58.017Z,44.03
2019-04-05T02:17:02.327Z,43.85
2019-04-05T02:19:06.248Z,49.15
2019-04-05T02:21:10.538Z,47.67
2019-04-05T02:23:14.762Z,45.58
2019-04-05T02:25:19.069Z,46.02
2019-04-05T02:27:23.280Z,47.33
2019-04-05T02:29:27.499Z,46.20
2019-04-05T02:31:33.624Z,44.50
2019-04-05T02:33:41.342Z,42.20
2019-04-05T02:35:45.589Z,44.48
2019-04-05T02:37:49.762Z,43.08
2019-04-05T02:39:53.654Z,45.03
2019-04-05T02:41:58.304Z,40.00
2019-04-05T02:44:02.390Z,42.53
2019-04-05T02:46:23.165Z,41.02
2019-04-05T02:48:21.087Z,48.37
2019-04-05T02:50:28.278Z,47.00
2019-04-05T02:52:32.604Z,43.17
2019-04-05T02:54:36.890Z,43.85
2019-04-05T02:56:41.114Z,46.10
2019-04-05T02:58:45.823Z,44.08
2019-04-05T03:00:50.413Z,41.28
2019-04-05T03:02:55.818Z,41.42
2019-04-05T03:05:00.001Z,70.92
2019-04-05T03:07:04.526Z,41.15
2019-04-05T03:09:09.586Z,41.68
2019-04-05T03:11:14.935Z,43.68
2019-04-05T03:13:19.212Z,42.27
2019-04-05T03:15:23.417Z,47.15
2019-04-05T03:17:27.944Z,43.68
2019-04-05T03:19:36.871Z,49.42
2019-04-05T03:21:44.057Z,44.60
2019-04-05T03:23:49.899Z,48.15
2019-04-05T03:25:55.326Z,47.55
2019-04-05T03:28:00.361Z,48.95
2019-04-05T03:30:06.897Z,52.90
2019-04-05T03:32:14.432Z,46.00
2019-04-05T03:34:18.846Z,49.18
2019-04-05T03:36:23.883Z,51.15
2019-04-05T03:38:28.087Z,47.45
2019-04-05T03:40:33.907Z,47.65
2019-04-05T03:42:38.779Z,56.88
2019-04-05T03:44:43.152Z,51.63
2019-04-05T03:46:56.297Z,49.77
2019-04-05T03:48:54.378Z,49.33
2019-04-05T03:50:58.716Z,52.17
2019-04-05T03:53:02.615Z,48.85
2019-04-05T03:55:06.776Z,55.70
2019-04-05T03:57:12.667Z,51.18
2019-04-05T03:59:17.282Z,54.58
2019-04-05T04:01:21.906Z,55.25
2019-04-05T04:03:26.816Z,53.78
2019-04-05T04:05:31.142Z,50.38
2019-04-05T04:07:35.465Z,47.90
2019-04-05T04:09:39.363Z,49.13
2019-04-05T04:11:43.381Z,42.20
2019-04-05T04:13:47.588Z,47.83
2019-04-05T04:15:52.525Z,47.10
2019-04-05T04:17:57.606Z,48.17
2019-04-05T04:20:01.760Z,43.10
2019-04-05T04:22:14.416Z,46.20
2019-04-05T04:24:20.259Z,42.00
2019-04-05T04:26:24.607Z,41.05
2019-04-05T04:28:31.116Z,39.55
2019-04-05T04:30:37.476Z,49.50
2019-04-05T04:32:41.795Z,52.75
2019-04-05T04:34:45.892Z,50.08
2019-04-05T04:36:50.522Z,46.30
2019-04-05T04:38:55.853Z,53.13
2019-04-05T04:41:00.952Z,53.60
2019-04-05T04:43:05.228Z,44.98
2019-04-05T04:45:12.464Z,46.68
2019-04-05T04:47:26.558Z,49.77
2019-04-05T04:49:24.608Z,46.95
2019-04-05T04:51:29.518Z,46.30
2019-04-05T04:53:34.140Z,46.50
2019-04-05T04:55:38.437Z,47.70
2019-04-05T04:57:46.254Z,45.50
2019-04-05T04:59:51.487Z,46.83
2019-04-05T05:01:57.060Z,52.23
2019-04-05T05:04:02.829Z,49.98
2019-04-05T05:06:07.412Z,44.00
2019-04-05T05:08:12.138Z,43.33
2019-04-05T05:10:16.550Z,40.63
2019-04-05T05:12:20.872Z,48.65
2019-04-05T05:14:24.968Z,49.70
2019-04-05T05:16:29.355Z,47.67
2019-04-05T05:18:33.717Z,43.83
2019-04-05T05:20:37.812Z,41.02
2019-04-05T05:22:42.248Z,46.80
2019-04-05T05:24:46.764Z,42.65
2019-04-05T05:26:51.278Z,49.15
2019-04-05T05:28:55.747Z,49.75
2019-04-05T05:31:01.062Z,47.48
2019-04-05T05:33:05.679Z,48.92
2019-04-05T05:35:09.896Z,48.45
2019-04-05T05:37:13.913Z,47.38
2019-04-05T05:39:18.196Z,50.55
2019-04-05T05:41:22.254Z,118.90
2019-04-05T05:43:26.196Z,102.42
2019-04-05T05:45:30.457Z,58.63
2019-04-05T05:47:34.732Z,50.00
2019-04-05T05:49:38.853Z,55.05
2019-04-05T05:51:43.149Z,51.25
2019-04-05T05:53:47.269Z,50.85
2019-04-05T05:55:51.496Z,55.60
2019-04-05T05:57:58.659Z,47.67
2019-04-05T06:00:01.856Z,49.65
2019-04-05T06:02:07.710Z,47.03
2019-04-05T06:04:13.790Z,46.68
2019-04-05T06:06:17.666Z,43.92
2019-04-05T06:08:21.771Z,47.53
2019-04-05T06:10:25.864Z,50.12
2019-04-05T06:12:30.094Z,46.55
2019-04-05T06:14:37.486Z,50.92
2019-04-05T06:16:46.507Z,43.60
2019-04-05T06:18:48.681Z,53.42
2019-04-05T06:20:53.012Z,46.53
2019-04-05T06:22:56.850Z,56.18
2019-04-05T06:25:01.157Z,53.30
2019-04-05T06:27:05.531Z,48.25
2019-04-05T06:29:10.685Z,51.98
2019-04-05T06:31:14.866Z,44.55
2019-04-05T06:33:30.853Z,44.95
2019-04-05T06:35:26.038Z,47.25
2019-04-05T06:37:30.174Z,45.33
2019-04-05T06:39:34.384Z,44.48
2019-04-05T06:41:38.515Z,43.68
2019-04-05T13:39:50.839Z,41.83
2019-04-05T13:41:54.683Z,33.30
2019-04-05T13:44:01.333Z,34.70
2019-04-05T13:46:04.366Z,32.00
2019-04-05T13:48:09.029Z,34.38
2019-04-05T13:50:14.537Z,29.63
2019-04-05T13:52:18.421Z,34.55
2019-04-05T13:54:22.248Z,33.80
2019-04-05T13:56:26.448Z,36.23
2019-04-05T13:58:30.662Z,37.35
2019-04-05T14:00:34.879Z,38.95
2019-04-05T14:02:39.094Z,43.70
2019-04-05T14:04:43.305Z,42.00
2019-04-05T14:06:47.406Z,39.03
2019-04-05T14:08:51.632Z,35.20
2019-04-05T14:10:55.848Z,42.40
2019-04-05T14:12:59.952Z,38.60
2019-04-05T14:15:04.372Z,36.98
2019-04-05T14:17:08.588Z,39.35
2019-04-05T14:19:12.874Z,35.75
2019-04-05T14:21:16.713Z,40.28
2019-04-05T14:23:23.332Z,43.28
2019-04-05T14:25:29.947Z,41.63
2019-04-05T14:27:34.798Z,37.80
2019-04-05T14:29:38.158Z,40.35
2019-04-05T14:31:41.973Z,39.78
2019-04-05T14:33:46.180Z,40.17
2019-04-05T14:35:50.403Z,38.42
2019-04-05T14:37:55.256Z,40.95
2019-04-05T14:39:59.422Z,37.38
2019-04-05T14:42:09.679Z,34.85
2019-04-05T14:44:10.048Z,38.50
2019-04-05T14:46:14.418Z,36.70
2019-04-05T14:48:18.266Z,38.20
2019-04-05T14:50:22.092Z,39.63
2019-04-05T14:52:25.950Z,37.38
2019-04-05T14:54:30.813Z,39.78
2019-04-05T14:56:35.078Z,35.00
2019-04-05T14:58:38.900Z,36.35
2019-04-05T15:00:44.449Z,39.13
2019-04-05T15:02:48.633Z,40.58
2019-04-05T15:04:52.740Z,38.17
2019-04-05T15:06:56.958Z,33.55
2019-04-05T15:09:02.186Z,36.45
2019-04-05T15:11:06.404Z,39.98
2019-04-05T15:13:10.636Z,38.17
2019-04-05T15:15:14.687Z,35.20
2019-04-05T15:17:18.834Z,39.13
2019-04-05T15:19:22.682Z,43.80
2019-04-05T15:21:26.850Z,36.88
2019-04-05T15:23:31.070Z,37.42
2019-04-05T15:25:34.916Z,37.93
2019-04-05T15:27:39.076Z,35.00
2019-04-05T15:29:43.312Z,38.80
2019-04-05T15:31:47.611Z,39.85
2019-04-05T15:33:51.814Z,45.30
2019-04-05T15:35:58.331Z,36.98
2019-04-05T15:38:02.314Z,39.48
2019-04-05T15:40:08.108Z,41.45
2019-04-05T15:42:12.251Z,44.00
2019-04-05T15:44:16.571Z,42.45
2019-04-05T15:46:20.884Z,37.53
2019-04-05T15:48:25.112Z,43.35
2019-04-05T15:50:28.957Z,42.38
2019-04-05T15:52:32.810Z,48.08
2019-04-05T15:54:36.912Z,45.20
2019-04-05T15:56:41.182Z,41.63
2019-04-05T15:58:45.018Z,38.83
2019-04-05T16:00:49.349Z,41.73
2019-04-05T16:02:53.559Z,44.95
2019-04-05T16:04:57.769Z,41.08
2019-04-05T16:07:01.889Z,49.05
2019-04-05T16:09:09.442Z,42.93
2019-04-05T16:11:13.583Z,44.40
2019-04-05T16:13:17.792Z,41.08
2019-04-05T16:15:21.656Z,42.50
2019-04-05T16:17:25.811Z,44.80
2019-04-05T16:19:29.931Z,44.70
2019-04-05T16:21:33.780Z,38.15
2019-04-05T16:23:40.486Z,40.70
2019-04-05T16:25:44.600Z,42.38
2019-04-05T16:27:48.830Z,35.98
2019-04-05T16:29:52.950Z,38.58
2019-04-05T16:31:57.151Z,37.38
2019-04-05T16:34:00.980Z,39.67
2019-04-05T16:36:05.254Z,41.08
2019-04-05T16:38:09.475Z,40.50
2019-04-05T16:40:14.099Z,43.33
2019-04-05T16:42:18.302Z,37.73
2019-04-05T16:44:22.417Z,40.30
2019-04-05T16:46:26.531Z,40.03
2019-04-05T16:48:30.735Z,37.78
2019-04-05T16:50:34.570Z,43.55
2019-04-05T16:52:44.593Z,40.23
2019-04-05T16:54:44.807Z,41.58
2019-04-05T16:56:48.641Z,40.23
2019-04-05T16:58:52.827Z,40.92
2019-04-05T17:00:57.003Z,37.85
2019-04-05T17:03:00.830Z,39.33
2019-04-05T17:05:06.980Z,42.65
2019-04-05T17:07:11.109Z,38.60
2019-04-05T17:09:15.229Z,38.08
2019-04-05T17:11:19.539Z,43.70
2019-04-05T17:13:23.396Z,40.85
2019-04-05T17:15:27.558Z,37.73
2019-04-05T17:17:31.379Z,38.08
2019-04-05T17:19:35.540Z,38.05
2019-04-05T17:21:39.665Z,40.85
2019-04-05T17:23:43.882Z,37.88
2019-04-05T17:25:48.105Z,38.13
2019-04-05T17:27:52.243Z,36.53
2019-04-05T17:29:56.386Z,40.03
2019-04-05T17:32:00.537Z,37.45
2019-04-05T17:34:04.782Z,40.50
2019-04-05T17:36:08.973Z,42.73
2019-04-05T17:38:13.190Z,43.13
2019-04-05T17:40:18.315Z,40.55
2019-04-05T17:42:22.173Z,54.30
2019-04-05T17:44:26.320Z,50.28
2019-04-05T17:46:30.344Z,46.08
2019-04-05T17:48:34.556Z,46.85
2019-04-05T17:50:38.871Z,40.00
2019-04-05T17:52:43.089Z,37.48
2019-04-05T17:54:50.362Z,39.05
2019-04-05T17:56:54.679Z,40.38
2019-04-05T17:58:59.089Z,42.58
2019-04-05T18:01:03.399Z,39.70
2019-04-05T18:03:07.633Z,38.28
2019-04-05T18:05:11.555Z,44.70
2019-04-05T18:07:15.836Z,37.50
2019-04-05T18:09:20.068Z,36.75
2019-04-05T18:11:24.277Z,39.40
2019-04-05T18:13:28.467Z,39.88
2019-04-05T18:15:32.763Z,44.13
2019-04-05T18:17:36.611Z,41.00
2019-04-05T18:19:44.120Z,40.30
2019-04-05T18:21:48.317Z,42.30
2019-04-05T18:23:52.529Z,41.60
2019-04-05T18:25:56.715Z,69.50
2019-04-05T18:28:00.929Z,41.88
2019-04-05T18:30:07.045Z,47.88
2019-04-05T18:32:11.199Z,40.45
2019-04-05T18:34:15.435Z,40.35
2019-04-05T18:36:19.265Z,43.33
2019-04-05T18:38:23.439Z,45.60
2019-04-05T18:40:39.469Z,43.65
2019-04-05T18:42:33.497Z,46.55
2019-04-05T18:44:37.746Z,36.98
2019-04-05T18:46:41.919Z,38.63
2019-04-05T18:48:45.828Z,44.73
2019-04-05T18:50:50.058Z,41.98
2019-04-05T18:52:53.903Z,40.88
2019-04-05T18:54:58.070Z,35.95
2019-04-05T18:57:02.266Z,47.45
2019-04-05T18:59:06.089Z,41.35
2019-04-05T19:01:10.278Z,41.48
2019-04-05T19:03:14.495Z,33.53
2019-04-05T19:05:18.703Z,37.13
2019-04-05T19:07:22.955Z,36.95
2019-04-05T19:09:27.252Z,31.23
2019-04-05T19:11:31.473Z,33.95
2019-04-05T19:13:35.480Z,34.53
2019-04-05T19:15:39.303Z,34.70
2019-04-05T19:17:43.475Z,33.45
2019-04-05T19:19:47.670Z,32.58
2019-04-05T19:21:51.893Z,34.95
2019-04-05T19:23:56.097Z,33.30
2019-04-05T19:25:59.955Z,32.15
2019-04-05T19:28:03.807Z,25.88
2019-04-05T19:49:01.003Z,32.15
2019-04-05T19:51:04.823Z,38.90
2019-04-05T19:53:09.012Z,37.05
2019-04-05T19:55:13.055Z,38.13
2019-04-05T19:57:17.249Z,45.03
2019-04-05T19:59:21.443Z,39.90
2019-04-05T20:01:25.347Z,36.50
2019-04-05T20:03:29.555Z,34.08
2019-04-05T20:05:33.401Z,32.03
2019-04-05T20:07:37.583Z,40.55
2019-04-05T20:09:41.402Z,42.05
2019-04-05T20:11:45.580Z,40.92
2019-04-05T20:13:49.717Z,44.30
2019-04-05T20:15:53.918Z,39.03
2019-04-05T20:17:58.133Z,30.20
2019-04-05T20:20:01.965Z,31.02
2019-04-05T20:22:06.145Z,29.98
2019-04-05T20:24:14.410Z,33.67
2019-04-05T20:26:15.925Z,29.45
2019-04-05T20:28:20.118Z,33.38
2019-04-05T20:30:24.325Z,35.55
2019-04-05T20:32:28.545Z,33.10
2019-04-05T20:34:32.758Z,39.55
2019-04-05T20:36:36.601Z,37.53
2019-04-05T20:38:40.447Z,39.15
2019-04-05T20:40:44.698Z,36.65
2019-04-05T20:42:48.874Z,37.67
2019-04-05T20:44:53.108Z,37.48
2019-04-05T20:46:57.310Z,33.85
2019-04-05T20:49:01.155Z,37.13
2019-04-05T20:51:05.320Z,38.67
2019-04-05T20:53:09.428Z,37.50
2019-04-05T20:55:13.657Z,37.15
2019-04-05T20:57:17.764Z,37.30
2019-04-05T20:59:21.964Z,41.00
2019-04-05T21:01:26.180Z,40.65
2019-04-05T21:03:30.386Z,38.45
2019-04-05T21:05:34.236Z,38.75
2019-04-05T21:07:38.403Z,40.30
2019-04-05T21:09:42.563Z,39.25
2019-04-05T21:11:46.734Z,40.63
2019-04-05T21:13:50.850Z,39.08
2019-04-05T21:15:55.045Z,47.78
2019-04-05T21:17:59.152Z,56.30
2019-04-05T21:20:03.388Z,58.48
2019-04-05T21:22:07.233Z,64.10
2019-04-05T21:24:11.057Z,58.75
2019-04-05T21:26:15.305Z,56.00
2019-04-05T21:28:19.141Z,54.90
2019-04-05T21:30:22.990Z,51.85
2019-04-05T21:32:27.124Z,53.58
2019-04-05T21:34:31.324Z,52.50
2019-04-05T21:36:35.544Z,55.90
2019-04-05T21:38:39.788Z,61.55
2019-04-05T21:40:43.972Z,53.52
2019-04-05T21:42:48.178Z,52.65
2019-04-05T21:44:52.288Z,50.80
2019-04-05T21:46:56.127Z,47.38
2019-04-05T21:49:00.305Z,53.65
2019-04-05T21:51:04.513Z,52.67
2019-04-05T21:53:08.626Z,51.68
2019-04-05T21:55:12.545Z,62.03
2019-04-05T21:57:16.646Z,54.40
2019-04-05T21:59:20.758Z,57.05
2019-04-05T22:01:26.411Z,51.45
2019-04-05T22:03:30.712Z,49.77
2019-04-05T22:05:34.564Z,49.38
2019-04-05T22:07:38.390Z,51.85
2019-04-05T22:09:42.747Z,59.42
2019-04-05T22:11:46.575Z,57.08
2019-04-05T22:13:50.410Z,57.00
2019-04-05T22:15:54.255Z,52.10
2019-04-05T22:17:58.387Z,51.13
2019-04-05T22:20:02.561Z,52.95
2019-04-05T22:22:06.399Z,49.05
2019-04-05T22:24:10.584Z,49.77
2019-04-05T22:26:14.694Z,49.80
2019-04-05T22:28:18.902Z,43.90
2019-04-05T22:30:23.016Z,50.12
2019-04-05T22:32:27.231Z,49.65
2019-04-05T22:34:31.348Z,47.48
2019-04-05T22:36:35.562Z,49.70
2019-04-05T22:38:39.770Z,52.70
2019-04-05T22:40:43.895Z,50.65
2019-04-05T22:42:47.787Z,52.05
2019-04-05T22:44:51.996Z,45.73
2019-04-05T22:46:55.834Z,44.73
2019-04-05T22:49:00.015Z,50.45
2019-04-05T22:51:05.037Z,48.83
2019-04-05T22:53:09.173Z,50.78
2019-04-05T22:55:13.366Z,49.50
2019-04-05T22:57:17.590Z,50.83
2019-04-05T22:59:21.786Z,46.00
2019-04-05T23:01:26.003Z,50.05
2019-04-05T23:03:30.212Z,49.53
2019-04-05T23:05:34.643Z,47.35
2019-04-05T23:07:38.473Z,52.95
2019-04-05T23:09:42.667Z,44.93
2019-04-05T23:11:46.760Z,53.65
2019-04-05T23:13:50.973Z,52.75
2019-04-05T23:15:54.873Z,56.20
2019-04-05T23:17:58.978Z,56.15
2019-04-05T23:20:03.200Z,54.85
2019-04-05T23:22:07.357Z,61.92
2019-04-05T23:24:11.420Z,63.70
2019-04-05T23:26:15.639Z,60.35
2019-04-05T23:28:19.844Z,57.30
2019-04-05T23:30:25.164Z,55.45
2019-04-05T23:32:29.292Z,55.98
2019-04-05T23:34:33.411Z,57.27
2019-04-05T23:36:37.234Z,54.80
2019-04-05T23:38:41.430Z,60.95
2019-04-05T23:40:45.522Z,59.13
2019-04-05T23:42:49.360Z,64.55
2019-04-05T23:44:53.552Z,61.58
2019-04-05T23:46:57.646Z,57.48
2019-04-05T23:49:01.468Z,55.95
2019-04-05T23:51:05.317Z,55.45
2019-04-05T23:53:09.471Z,59.70
2019-04-05T23:55:13.602Z,62.90
2019-04-05T23:57:18.306Z,62.35
2019-04-05T23:59:22.140Z,62.48
